createdAt,value
2022-08-03T00:02:49.458Z,95861.00
2022-08-03T00:08:17.499Z,95862.00
2022-08-03T00:13:47.782Z,95854.00
2022-08-03T00:19:16.023Z,95854.00
2022-08-03T00:24:43.912Z,95857.00
2022-08-03T00:30:12.544Z,95849.00
2022-08-03T00:35:50.710Z,95852.00
2022-08-03T00:41:19.131Z,95850.00
2022-08-03T00:46:47.027Z,95846.00
2022-08-03T00:52:17.176Z,95849.00
2022-08-03T00:57:45.616Z,95856.00
2022-08-03T01:03:13.592Z,95851.00
2022-08-03T01:09:00.032Z,95845.00
2022-08-03T01:14:48.497Z,95850.00
2022-08-03T01:20:18.746Z,95849.00
2022-08-03T01:26:32.057Z,95835.00
2022-08-03T01:32:54.510Z,95834.00
2022-08-03T01:38:02.507Z,95829.00
2022-08-03T01:44:27.043Z,95828.00
2022-08-03T01:49:19.282Z,95826.00
2022-08-03T01:54:51.855Z,95827.00
2022-08-03T02:00:20.183Z,95825.00
2022-08-03T02:05:49.927Z,95823.00
2022-08-03T02:11:22.261Z,95823.00
2022-08-03T02:16:51.890Z,95818.00
2022-08-03T02:22:20.139Z,95821.00
2022-08-03T02:27:59.849Z,95820.00
2022-08-03T02:33:33.536Z,95810.00
2022-08-03T02:39:03.819Z,95817.00
2022-08-03T02:44:33.267Z,95818.00
2022-08-03T02:50:03.694Z,95821.00
2022-08-03T02:55:35.335Z,95821.00
2022-08-03T03:01:03.871Z,95829.00
2022-08-03T03:06:32.635Z,95817.00
2022-08-03T03:12:03.098Z,95812.00
2022-08-03T03:17:31.951Z,95810.00
2022-08-03T03:23:01.343Z,95808.00
2022-08-03T03:28:30.926Z,95811.00
2022-08-03T03:33:59.681Z,95815.00
2022-08-03T03:39:27.690Z,95819.00
2022-08-03T03:44:55.970Z,95823.00
2022-08-03T03:50:24.918Z,95816.00
2022-08-03T03:55:59.653Z,95821.00
2022-08-03T04:01:31.369Z,95829.00
2022-08-03T04:07:18.552Z,95826.00
2022-08-03T04:12:50.012Z,95825.00
2022-08-03T04:18:20.116Z,95819.00
2022-08-03T04:23:52.068Z,95823.00
2022-08-03T04:29:20.778Z,95829.00
2022-08-03T04:34:49.057Z,95838.00
2022-08-03T04:40:31.330Z,95833.00
2022-08-03T04:46:01.101Z,95828.00
2022-08-03T04:51:29.350Z,95840.00
2022-08-03T04:56:57.116Z,95839.00
2022-08-03T05:02:25.605Z,95846.00
2022-08-03T05:07:53.826Z,95839.00
2022-08-03T05:13:21.679Z,95848.00
2022-08-03T05:18:49.921Z,95851.00
2022-08-03T05:24:18.155Z,95849.00
2022-08-03T05:29:47.157Z,95859.00
2022-08-03T05:36:02.062Z,95857.00
2022-08-03T05:41:21.408Z,95862.00
2022-08-03T05:46:52.389Z,95864.00
2022-08-03T05:52:20.607Z,95858.00
2022-08-03T05:57:49.323Z,95855.00
2022-08-03T06:03:17.116Z,95847.00
2022-08-03T06:08:49.176Z,95861.00
2022-08-03T06:14:17.034Z,95867.00
2022-08-03T06:19:45.021Z,95867.00
2022-08-03T06:25:13.120Z,95870.00
2022-08-03T06:30:42.205Z,95877.00
2022-08-03T06:36:10.022Z,95879.00
2022-08-03T06:41:44.655Z,95875.00
2022-08-03T06:47:12.860Z,95873.00
2022-08-03T06:52:40.856Z,95881.00
2022-08-03T06:58:09.860Z,95881.00
2022-08-03T07:03:37.729Z,95878.00
2022-08-03T07:09:19.976Z,95885.00
2022-08-03T07:14:47.881Z,95878.00
2022-08-03T07:20:17.516Z,95880.00
2022-08-03T07:25:45.753Z,95881.00
2022-08-03T07:31:13.447Z,95872.00
2022-08-03T07:36:41.632Z,95862.00
2022-08-03T07:42:09.562Z,95857.00
2022-08-03T07:47:37.468Z,95863.00
2022-08-03T07:53:05.314Z,95867.00
2022-08-03T07:58:33.103Z,95863.00
2022-08-03T08:04:00.901Z,95857.00
2022-08-03T08:09:28.839Z,95855.00
2022-08-03T08:14:57.244Z,95850.00
2022-08-03T08:20:33.526Z,95838.00
2022-08-03T08:26:02.871Z,95851.00
2022-08-03T08:31:30.794Z,95859.00
2022-08-03T08:36:58.971Z,95846.00
2022-08-03T08:42:26.885Z,95852.00
2022-08-03T08:48:01.005Z,95848.00
2022-08-03T08:53:33.770Z,95844.00
2022-08-03T08:59:02.885Z,95845.00
2022-08-03T09:04:32.380Z,95837.00
2022-08-03T09:10:12.267Z,95847.00
2022-08-03T09:15:42.390Z,95838.00
2022-08-03T09:21:32.141Z,95837.00
2022-08-03T09:27:00.589Z,95834.00
2022-08-03T09:32:32.902Z,95841.00
2022-08-03T09:38:33.373Z,95835.00
2022-08-03T09:44:01.373Z,95840.00
2022-08-03T09:49:29.378Z,95839.00
2022-08-03T09:54:57.674Z,95832.00
2022-08-03T10:00:25.672Z,95832.00
2022-08-03T10:05:59.079Z,95833.00
2022-08-03T10:11:40.933Z,95826.00
2022-08-03T10:17:13.423Z,95829.00
2022-08-03T10:22:42.424Z,95820.00
2022-08-03T10:28:15.798Z,95826.00
2022-08-03T10:33:50.183Z,95809.00
2022-08-03T10:39:23.854Z,95821.00
2022-08-03T10:45:05.294Z,95806.00
2022-08-03T10:50:33.571Z,95801.00
2022-08-03T10:56:43.785Z,95795.00
2022-08-03T11:02:10.068Z,95794.00
2022-08-03T11:07:40.046Z,95784.00
2022-08-03T11:13:09.170Z,95785.00
2022-08-03T11:18:37.389Z,95789.00
2022-08-03T11:24:06.811Z,95783.00
2022-08-03T11:29:34.912Z,95788.00
2022-08-03T11:35:30.243Z,95779.00
2022-08-03T11:40:58.382Z,95780.00
2022-08-03T11:46:30.065Z,95781.00
2022-08-03T11:51:58.288Z,95783.00
2022-08-03T11:59:11.018Z,95775.00
2022-08-03T12:03:23.123Z,95771.00
2022-08-03T12:08:51.004Z,95774.00
2022-08-03T12:14:50.625Z,95770.00
2022-08-03T12:20:10.775Z,95756.00
2022-08-03T12:25:41.285Z,95762.00
2022-08-03T12:31:09.687Z,95756.00
2022-08-03T12:36:38.678Z,95753.00
2022-08-03T12:42:06.700Z,95765.00
2022-08-03T12:47:58.924Z,95749.00
2022-08-03T12:53:30.419Z,95749.00
2022-08-03T12:58:58.361Z,95741.00
2022-08-03T13:04:33.218Z,95736.00
2022-08-03T13:10:07.669Z,95740.00
2022-08-03T13:15:38.805Z,95735.00
2022-08-03T13:21:17.100Z,95744.00
2022-08-03T13:26:45.274Z,95739.00
2022-08-03T13:32:13.189Z,95731.00
2022-08-03T13:37:41.065Z,95721.00
2022-08-03T13:43:09.482Z,95725.00
2022-08-03T13:48:37.957Z,95719.00
2022-08-03T13:54:06.196Z,95722.00
2022-08-03T13:59:34.755Z,95714.00
2022-08-03T14:05:02.879Z,95704.00
2022-08-03T14:10:30.806Z,95692.00
2022-08-03T14:15:58.731Z,95685.00
2022-08-03T14:21:27.137Z,95700.00
2022-08-03T14:27:02.214Z,95685.00
2022-08-03T14:32:33.793Z,95691.00
2022-08-03T14:38:01.719Z,95682.00
2022-08-03T14:43:34.180Z,95684.00
2022-08-03T14:50:38.880Z,95679.00
2022-08-03T14:54:52.852Z,95676.00
2022-08-03T15:00:21.054Z,95662.00
2022-08-03T15:05:56.761Z,95674.00
2022-08-03T15:11:24.790Z,95670.00
2022-08-03T15:16:53.575Z,95664.00
2022-08-03T15:22:24.832Z,95669.00
2022-08-03T15:28:02.733Z,95662.00
2022-08-03T15:33:32.795Z,95671.00
2022-08-03T15:39:04.645Z,95660.00
2022-08-03T15:44:32.685Z,95665.00
2022-08-03T15:50:00.627Z,95660.00
2022-08-03T15:55:29.092Z,95666.00
2022-08-03T16:00:58.486Z,95649.00
2022-08-03T16:06:34.890Z,95659.00
2022-08-03T16:12:04.483Z,95654.00
2022-08-03T16:17:32.624Z,95654.00
2022-08-03T16:23:01.560Z,95650.00
2022-08-03T16:28:39.544Z,95656.00
2022-08-03T16:34:07.282Z,95655.00
2022-08-03T16:39:35.944Z,95657.00
2022-08-03T16:45:09.687Z,95650.00
2022-08-03T16:50:38.558Z,95657.00
2022-08-03T16:56:10.178Z,95655.00
2022-08-03T17:01:40.750Z,95654.00
2022-08-03T17:07:09.097Z,95645.00
2022-08-03T17:12:38.014Z,95652.00
2022-08-03T17:18:09.299Z,95667.00
2022-08-03T17:23:56.713Z,95661.00
2022-08-03T17:29:30.082Z,95673.00
2022-08-03T17:34:58.091Z,95677.00
2022-08-03T17:40:26.650Z,95669.00
2022-08-03T17:45:55.227Z,95673.00
2022-08-03T17:51:53.125Z,95671.00
2022-08-03T17:58:02.004Z,95682.00
2022-08-03T18:03:58.657Z,95692.00
2022-08-03T18:10:03.451Z,95703.00
2022-08-03T18:15:27.238Z,95706.00
2022-08-03T18:20:58.007Z,95710.00
2022-08-03T18:26:27.766Z,95705.00
2022-08-03T18:32:04.265Z,95720.00
2022-08-03T18:43:47.200Z,95714.00
2022-08-03T18:49:34.209Z,95723.00
2022-08-03T18:55:20.845Z,95723.00
2022-08-03T19:01:59.622Z,95728.00
2022-08-03T19:07:35.883Z,95729.00
2022-08-03T19:13:30.963Z,95736.00
2022-08-03T19:19:14.392Z,95739.00
2022-08-03T19:24:43.680Z,95740.00
2022-08-03T19:30:32.164Z,95735.00
2022-08-03T19:36:00.576Z,95739.00
2022-08-03T19:41:42.065Z,95750.00
2022-08-03T19:47:34.094Z,95748.00
2022-08-03T19:53:10.237Z,95743.00
2022-08-03T19:58:42.865Z,95744.00
2022-08-03T20:04:11.549Z,95741.00
2022-08-03T20:09:44.660Z,95748.00
2022-08-03T20:15:13.425Z,95741.00
2022-08-03T20:20:41.974Z,95745.00
2022-08-03T20:26:19.653Z,95744.00
2022-08-03T20:31:48.796Z,95742.00
2022-08-03T20:37:18.358Z,95743.00
2022-08-03T20:42:46.259Z,95736.00
2022-08-03T20:48:16.496Z,95732.00
2022-08-03T20:53:59.759Z,95741.00
2022-08-03T20:59:46.922Z,95739.00
2022-08-03T21:05:21.260Z,95742.00
2022-08-03T21:11:17.180Z,95745.00
2022-08-03T21:12:58.652Z,95711.00
2022-08-03T21:16:49.910Z,95731.00
2022-08-03T21:22:22.405Z,95739.00
2022-08-03T21:27:53.913Z,95729.00
2022-08-03T21:33:27.861Z,95730.00
2022-08-03T21:38:57.725Z,95732.00
2022-08-03T21:44:29.067Z,95727.00
2022-08-03T21:50:07.142Z,95727.00
2022-08-03T21:55:40.159Z,95722.00
2022-08-03T22:01:10.897Z,95724.00
2022-08-03T22:06:42.468Z,95730.00
2022-08-03T22:12:10.423Z,95725.00
2022-08-03T22:17:54.850Z,95727.00
2022-08-03T22:23:27.465Z,95723.00
2022-08-03T22:28:59.726Z,95731.00
2022-08-03T22:34:28.762Z,95724.00
2022-08-03T22:39:58.407Z,95720.00
2022-08-03T22:46:06.446Z,95723.00
2022-08-03T22:51:15.602Z,95721.00
2022-08-03T22:56:47.547Z,95725.00
2022-08-03T23:02:22.470Z,95722.00
2022-08-03T23:07:53.435Z,95716.00
2022-08-03T23:13:25.498Z,95714.00
2022-08-03T23:18:53.941Z,95718.00
2022-08-03T23:24:29.931Z,95715.00
2022-08-03T23:30:00.854Z,95720.00
2022-08-03T23:36:22.619Z,95710.00
2022-08-03T23:41:39.356Z,95707.00
2022-08-03T23:47:07.666Z,95707.00
2022-08-03T23:53:05.807Z,95705.00
2022-08-03T23:58:49.221Z,95701.00
